sensor_id;sensor_type;location;lat;lon;timestamp;temperature;humidity
16040;DHT22;8124;48.634;8.120;2023-03-21T00:00:07;12.90;99.90
16040;DHT22;8124;48.634;8.120;2023-03-21T00:05:13;13.00;99.90
16040;DHT22;8124;48.634;8.120;2023-03-21T00:10:17;12.80;99.90
16040;DHT22;8124;48.634;8.120;2023-03-21T00:15:33;12.70;99.90
16040;DHT22;8124;48.634;8.120;2023-03-21T00:21:07;12.40;99.90
16040;DHT22;8124;48.634;8.120;2023-03-21T00:26:32;12.00;99.90
16040;DHT22;8124;48.634;8.120;2023-03-21T00:31:35;12.00;99.90
16040;DHT22;8124;48.634;8.120;2023-03-21T00:36:39;12.20;99.90
16040;DHT22;8124;48.634;8.120;2023-03-21T00:41:42;12.20;99.90
16040;DHT22;8124;48.634;8.120;2023-03-21T00:46:45;12.00;99.90
16040;DHT22;8124;48.634;8.120;2023-03-21T00:52:09;11.70;99.90
16040;DHT22;8124;48.634;8.120;2023-03-21T00:57:25;12.00;99.90
16040;DHT22;8124;48.634;8.120;2023-03-21T01:02:39;11.90;99.90
16040;DHT22;8124;48.634;8.120;2023-03-21T01:08:06;11.90;99.90
16040;DHT22;8124;48.634;8.120;2023-03-21T01:13:27;11.90;99.90
16040;DHT22;8124;48.634;8.120;2023-03-21T01:18:31;11.90;99.90
16040;DHT22;8124;48.634;8.120;2023-03-21T01:23:38;11.80;99.90
16040;DHT22;8124;48.634;8.120;2023-03-21T01:28:42;11.70;99.90
16040;DHT22;8124;48.634;8.120;2023-03-21T01:33:46;11.70;99.90
16040;DHT22;8124;48.634;8.120;2023-03-21T01:38:52;11.50;99.90
16040;DHT22;8124;48.634;8.120;2023-03-21T01:43:55;11.30;99.90
16040;DHT22;8124;48.634;8.120;2023-03-21T01:49:09;10.90;99.90
16040;DHT22;8124;48.634;8.120;2023-03-21T01:54:20;11.10;99.90
16040;DHT22;8124;48.634;8.120;2023-03-21T01:59:28;11.30;99.90
16040;DHT22;8124;48.634;8.120;2023-03-21T02:04:41;11.40;99.90
16040;DHT22;8124;48.634;8.120;2023-03-21T02:09:59;11.30;99.90
16040;DHT22;8124;48.634;8.120;2023-03-21T02:15:05;11.20;99.90
16040;DHT22;8124;48.634;8.120;2023-03-21T02:21:07;11.10;99.90
16040;DHT22;8124;48.634;8.120;2023-03-21T02:26:46;11.20;99.90
16040;DHT22;8124;48.634;8.120;2023-03-21T02:32:10;11.20;99.90
16040;DHT22;8124;48.634;8.120;2023-03-21T02:37:34;11.10;99.90
16040;DHT22;8124;48.634;8.120;2023-03-21T02:42:52;11.10;99.90
16040;DHT22;8124;48.634;8.120;2023-03-21T02:48:08;11.00;99.90
16040;DHT22;8124;48.634;8.120;2023-03-21T02:53:31;10.90;99.90
16040;DHT22;8124;48.634;8.120;2023-03-21T02:58:39;10.90;99.90
16040;DHT22;8124;48.634;8.120;2023-03-21T03:03:43;10.60;99.90
16040;DHT22;8124;48.634;8.120;2023-03-21T03:08:59;10.50;99.90
16040;DHT22;8124;48.634;8.120;2023-03-21T03:14:30;10.70;99.90
16040;DHT22;8124;48.634;8.120;2023-03-21T03:20:23;10.70;99.90
16040;DHT22;8124;48.634;8.120;2023-03-21T03:25:31;10.70;99.90
16040;DHT22;8124;48.634;8.120;2023-03-21T03:30:48;10.80;99.90
16040;DHT22;8124;48.634;8.120;2023-03-21T03:36:15;10.80;99.90
16040;DHT22;8124;48.634;8.120;2023-03-21T03:41:39;10.80;99.90
16040;DHT22;8124;48.634;8.120;2023-03-21T03:47:08;10.70;99.90
16040;DHT22;8124;48.634;8.120;2023-03-21T03:52:30;10.70;99.90
16040;DHT22;8124;48.634;8.120;2023-03-21T03:57:42;10.50;99.90
16040;DHT22;8124;48.634;8.120;2023-03-21T04:02:45;10.40;99.90
16040;DHT22;8124;48.634;8.120;2023-03-21T04:07:53;10.20;99.90
16040;DHT22;8124;48.634;8.120;2023-03-21T04:13:06;10.10;99.90
16040;DHT22;8124;48.634;8.120;2023-03-21T04:18:24;10.20;99.90
16040;DHT22;8124;48.634;8.120;2023-03-21T04:23:27;10.30;99.90
16040;DHT22;8124;48.634;8.120;2023-03-21T04:28:32;10.30;99.90
16040;DHT22;8124;48.634;8.120;2023-03-21T04:33:54;10.20;99.90
16040;DHT22;8124;48.634;8.120;2023-03-21T04:38:58;10.10;99.90
16040;DHT22;8124;48.634;8.120;2023-03-21T04:44:04;10.00;99.90
16040;DHT22;8124;48.634;8.120;2023-03-21T04:49:08;10.30;99.90
16040;DHT22;8124;48.634;8.120;2023-03-21T04:54:12;10.20;99.90
16040;DHT22;8124;48.634;8.120;2023-03-21T04:59:18;10.10;99.90
16040;DHT22;8124;48.634;8.120;2023-03-21T05:04:22;9.90;99.90
16040;DHT22;8124;48.634;8.120;2023-03-21T05:09:25;9.60;99.90
16040;DHT22;8124;48.634;8.120;2023-03-21T05:14:29;9.30;99.90
16040;DHT22;8124;48.634;8.120;2023-03-21T05:19:32;9.20;99.90
16040;DHT22;8124;48.634;8.120;2023-03-21T05:24:41;9.30;99.90
16040;DHT22;8124;48.634;8.120;2023-03-21T05:29:53;9.00;99.90
16040;DHT22;8124;48.634;8.120;2023-03-21T05:34:56;9.20;99.90
16040;DHT22;8124;48.634;8.120;2023-03-21T05:39:59;9.20;99.90
16040;DHT22;8124;48.634;8.120;2023-03-21T05:45:07;9.20;99.90
16040;DHT22;8124;48.634;8.120;2023-03-21T05:50:12;9.20;99.90
16040;DHT22;8124;48.634;8.120;2023-03-21T05:55:18;9.20;99.90
16040;DHT22;8124;48.634;8.120;2023-03-21T06:00:23;9.10;99.90
16040;DHT22;8124;48.634;8.120;2023-03-21T06:05:45;9.00;99.90
16040;DHT22;8124;48.634;8.120;2023-03-21T06:10:54;8.80;99.90
16040;DHT22;8124;48.634;8.120;2023-03-21T06:15:58;8.90;99.90
16040;DHT22;8124;48.634;8.120;2023-03-21T06:21:03;9.00;99.90
16040;DHT22;8124;48.634;8.120;2023-03-21T06:26:06;9.10;99.90
16040;DHT22;8124;48.634;8.120;2023-03-21T06:31:11;9.20;99.90
16040;DHT22;8124;48.634;8.120;2023-03-21T06:36:15;9.20;99.90
16040;DHT22;8124;48.634;8.120;2023-03-21T06:41:18;9.50;99.90
16040;DHT22;8124;48.634;8.120;2023-03-21T06:46:33;9.40;99.90
16040;DHT22;8124;48.634;8.120;2023-03-21T06:51:37;9.40;99.90
16040;DHT22;8124;48.634;8.120;2023-03-21T06:56:46;9.40;99.90
16040;DHT22;8124;48.634;8.120;2023-03-21T07:01:58;9.60;99.90
16040;DHT22;8124;48.634;8.120;2023-03-21T07:07:03;9.60;99.90
16040;DHT22;8124;48.634;8.120;2023-03-21T07:12:06;9.70;99.90
16040;DHT22;8124;48.634;8.120;2023-03-21T07:17:26;9.70;99.90
16040;DHT22;8124;48.634;8.120;2023-03-21T07:22:31;9.80;99.90
16040;DHT22;8124;48.634;8.120;2023-03-21T07:27:34;9.90;99.90
16040;DHT22;8124;48.634;8.120;2023-03-21T07:32:41;10.00;99.90
16040;DHT22;8124;48.634;8.120;2023-03-21T07:37:46;9.90;99.90
16040;DHT22;8124;48.634;8.120;2023-03-21T07:42:50;10.10;99.90
16040;DHT22;8124;48.634;8.120;2023-03-21T07:48:05;10.30;99.90
16040;DHT22;8124;48.634;8.120;2023-03-21T07:53:08;10.50;99.90
16040;DHT22;8124;48.634;8.120;2023-03-21T07:58:11;10.60;99.90
16040;DHT22;8124;48.634;8.120;2023-03-21T08:03:15;10.80;99.90
16040;DHT22;8124;48.634;8.120;2023-03-21T08:08:18;10.80;99.90
16040;DHT22;8124;48.634;8.120;2023-03-21T08:13:21;10.80;99.90
16040;DHT22;8124;48.634;8.120;2023-03-21T08:18:26;10.90;99.90
16040;DHT22;8124;48.634;8.120;2023-03-21T08:23:29;11.10;99.90
16040;DHT22;8124;48.634;8.120;2023-03-21T08:28:32;11.20;99.90
16040;DHT22;8124;48.634;8.120;2023-03-21T08:33:38;11.40;99.90
16040;DHT22;8124;48.634;8.120;2023-03-21T08:38:41;11.30;99.90
16040;DHT22;8124;48.634;8.120;2023-03-21T08:43:46;11.30;99.90
16040;DHT22;8124;48.634;8.120;2023-03-21T08:48:51;11.20;99.90
16040;DHT22;8124;48.634;8.120;2023-03-21T08:53:54;11.50;99.90
16040;DHT22;8124;48.634;8.120;2023-03-21T08:58:57;11.50;99.90
16040;DHT22;8124;48.634;8.120;2023-03-21T09:04:04;11.80;99.90
16040;DHT22;8124;48.634;8.120;2023-03-21T09:09:11;11.90;99.90
16040;DHT22;8124;48.634;8.120;2023-03-21T09:14:14;11.90;99.90
16040;DHT22;8124;48.634;8.120;2023-03-21T09:19:21;12.00;99.90
16040;DHT22;8124;48.634;8.120;2023-03-21T09:24:25;12.30;99.90
16040;DHT22;8124;48.634;8.120;2023-03-21T09:29:28;12.50;99.90
16040;DHT22;8124;48.634;8.120;2023-03-21T09:34:34;12.50;99.90
16040;DHT22;8124;48.634;8.120;2023-03-21T09:39:42;12.50;99.90
16040;DHT22;8124;48.634;8.120;2023-03-21T09:44:53;12.70;99.90
16040;DHT22;8124;48.634;8.120;2023-03-21T09:50:04;12.90;99.90
16040;DHT22;8124;48.634;8.120;2023-03-21T09:55:17;13.00;99.90
16040;DHT22;8124;48.634;8.120;2023-03-21T10:00:26;13.10;99.90
16040;DHT22;8124;48.634;8.120;2023-03-21T10:05:34;13.40;99.90
16040;DHT22;8124;48.634;8.120;2023-03-21T10:10:45;13.60;99.90
16040;DHT22;8124;48.634;8.120;2023-03-21T10:15:49;13.80;99.90
16040;DHT22;8124;48.634;8.120;2023-03-21T10:20:53;13.90;99.90
16040;DHT22;8124;48.634;8.120;2023-03-21T10:25:59;14.00;99.90
16040;DHT22;8124;48.634;8.120;2023-03-21T10:31:04;14.10;99.90
16040;DHT22;8124;48.634;8.120;2023-03-21T10:36:11;14.40;99.90
16040;DHT22;8124;48.634;8.120;2023-03-21T10:41:17;14.30;99.90
16040;DHT22;8124;48.634;8.120;2023-03-21T10:46:21;14.30;99.90
16040;DHT22;8124;48.634;8.120;2023-03-21T10:51:34;14.60;99.90
16040;DHT22;8124;48.634;8.120;2023-03-21T10:56:42;14.50;99.90
16040;DHT22;8124;48.634;8.120;2023-03-21T11:01:48;14.60;99.90
16040;DHT22;8124;48.634;8.120;2023-03-21T11:06:56;14.90;99.90
16040;DHT22;8124;48.634;8.120;2023-03-21T11:12:02;15.20;99.90
16040;DHT22;8124;48.634;8.120;2023-03-21T11:17:22;15.10;99.90
16040;DHT22;8124;48.634;8.120;2023-03-21T11:22:29;15.40;99.90
16040;DHT22;8124;48.634;8.120;2023-03-21T11:27:46;15.50;99.90
16040;DHT22;8124;48.634;8.120;2023-03-21T11:32:53;15.50;99.90
16040;DHT22;8124;48.634;8.120;2023-03-21T11:37:58;15.70;99.90
16040;DHT22;8124;48.634;8.120;2023-03-21T11:43:03;16.00;99.90
16040;DHT22;8124;48.634;8.120;2023-03-21T11:48:12;15.80;99.90
16040;DHT22;8124;48.634;8.120;2023-03-21T11:53:24;15.90;99.90
16040;DHT22;8124;48.634;8.120;2023-03-21T11:58:38;16.10;99.90
16040;DHT22;8124;48.634;8.120;2023-03-21T12:04:10;16.20;99.90
16040;DHT22;8124;48.634;8.120;2023-03-21T12:09:35;16.10;99.90
16040;DHT22;8124;48.634;8.120;2023-03-21T12:14:46;16.50;99.90
16040;DHT22;8124;48.634;8.120;2023-03-21T12:20:06;16.40;99.90
16040;DHT22;8124;48.634;8.120;2023-03-21T12:25:15;16.60;99.90
16040;DHT22;8124;48.634;8.120;2023-03-21T12:30:36;16.70;99.90
16040;DHT22;8124;48.634;8.120;2023-03-21T12:35:56;16.50;99.90
16040;DHT22;8124;48.634;8.120;2023-03-21T12:41:18;16.60;99.90
16040;DHT22;8124;48.634;8.120;2023-03-21T12:46:28;16.50;99.90
16040;DHT22;8124;48.634;8.120;2023-03-21T12:51:38;16.60;99.90
16040;DHT22;8124;48.634;8.120;2023-03-21T12:56:49;16.70;99.90
16040;DHT22;8124;48.634;8.120;2023-03-21T13:01:58;16.70;99.90
16040;DHT22;8124;48.634;8.120;2023-03-21T13:07:06;16.80;99.90
16040;DHT22;8124;48.634;8.120;2023-03-21T13:12:24;16.80;99.90
16040;DHT22;8124;48.634;8.120;2023-03-21T13:17:33;17.00;99.90
16040;DHT22;8124;48.634;8.120;2023-03-21T13:22:38;17.00;99.90
16040;DHT22;8124;48.634;8.120;2023-03-21T13:27:44;17.10;99.90
16040;DHT22;8124;48.634;8.120;2023-03-21T13:33:01;17.10;99.90
16040;DHT22;8124;48.634;8.120;2023-03-21T13:38:10;17.00;99.90
16040;DHT22;8124;48.634;8.120;2023-03-21T13:43:40;17.00;99.90
16040;DHT22;8124;48.634;8.120;2023-03-21T13:48:54;17.10;99.90
16040;DHT22;8124;48.634;8.120;2023-03-21T13:54:01;17.20;99.90
16040;DHT22;8124;48.634;8.120;2023-03-21T13:59:09;17.10;99.80
16040;DHT22;8124;48.634;8.120;2023-03-21T14:04:15;17.20;99.70
16040;DHT22;8124;48.634;8.120;2023-03-21T14:09:23;17.20;99.40
16040;DHT22;8124;48.634;8.120;2023-03-21T14:14:34;17.20;98.80
16040;DHT22;8124;48.634;8.120;2023-03-21T14:19:39;17.30;98.70
16040;DHT22;8124;48.634;8.120;2023-03-21T14:24:46;17.20;98.40
16040;DHT22;8124;48.634;8.120;2023-03-21T14:29:51;17.20;98.10
16040;DHT22;8124;48.634;8.120;2023-03-21T14:34:54;17.20;97.90
16040;DHT22;8124;48.634;8.120;2023-03-21T14:39:59;17.20;97.80
16040;DHT22;8124;48.634;8.120;2023-03-21T14:45:15;17.40;97.80
16040;DHT22;8124;48.634;8.120;2023-03-21T14:50:23;17.20;97.10
16040;DHT22;8124;48.634;8.120;2023-03-21T14:55:28;17.30;96.90
16040;DHT22;8124;48.634;8.120;2023-03-21T15:00:32;17.30;97.40
16040;DHT22;8124;48.634;8.120;2023-03-21T15:05:36;17.30;97.40
16040;DHT22;8124;48.634;8.120;2023-03-21T15:10:40;17.40;97.20
16040;DHT22;8124;48.634;8.120;2023-03-21T15:15:45;17.30;97.00
16040;DHT22;8124;48.634;8.120;2023-03-21T15:20:49;17.30;96.60
16040;DHT22;8124;48.634;8.120;2023-03-21T15:25:53;17.40;96.90
16040;DHT22;8124;48.634;8.120;2023-03-21T15:30:57;17.40;96.90
16040;DHT22;8124;48.634;8.120;2023-03-21T15:36:08;17.40;96.40
16040;DHT22;8124;48.634;8.120;2023-03-21T15:41:30;17.50;96.60
16040;DHT22;8124;48.634;8.120;2023-03-21T15:46:39;17.60;96.60
16040;DHT22;8124;48.634;8.120;2023-03-21T15:51:45;17.60;96.40
16040;DHT22;8124;48.634;8.120;2023-03-21T15:56:52;17.70;96.70
16040;DHT22;8124;48.634;8.120;2023-03-21T16:01:56;17.70;96.60
16040;DHT22;8124;48.634;8.120;2023-03-21T16:07:02;17.60;96.70
16040;DHT22;8124;48.634;8.120;2023-03-21T16:12:10;17.50;96.30
16040;DHT22;8124;48.634;8.120;2023-03-21T16:17:26;17.40;96.00
16040;DHT22;8124;48.634;8.120;2023-03-21T16:22:31;17.50;96.60
16040;DHT22;8124;48.634;8.120;2023-03-21T16:27:38;17.50;97.50
16040;DHT22;8124;48.634;8.120;2023-03-21T16:32:42;17.40;98.40
16040;DHT22;8124;48.634;8.120;2023-03-21T16:37:45;17.30;98.40
16040;DHT22;8124;48.634;8.120;2023-03-21T16:42:48;17.30;98.20
16040;DHT22;8124;48.634;8.120;2023-03-21T16:47:53;17.40;98.80
16040;DHT22;8124;48.634;8.120;2023-03-21T16:52:57;17.30;99.70
16040;DHT22;8124;48.634;8.120;2023-03-21T16:58:00;17.20;99.90
16040;DHT22;8124;48.634;8.120;2023-03-21T17:03:13;17.20;99.90
16040;DHT22;8124;48.634;8.120;2023-03-21T17:08:21;17.10;99.90
16040;DHT22;8124;48.634;8.120;2023-03-21T17:13:24;16.90;99.90
16040;DHT22;8124;48.634;8.120;2023-03-21T17:18:28;16.80;99.90
16040;DHT22;8124;48.634;8.120;2023-03-21T17:23:31;16.80;99.90
16040;DHT22;8124;48.634;8.120;2023-03-21T17:28:34;16.80;99.90
16040;DHT22;8124;48.634;8.120;2023-03-21T17:33:38;16.70;99.90
16040;DHT22;8124;48.634;8.120;2023-03-21T17:38:43;16.80;99.90
16040;DHT22;8124;48.634;8.120;2023-03-21T17:43:47;16.70;99.90
16040;DHT22;8124;48.634;8.120;2023-03-21T17:48:53;16.80;99.90
16040;DHT22;8124;48.634;8.120;2023-03-21T17:53:56;16.70;99.90
16040;DHT22;8124;48.634;8.120;2023-03-21T17:59:00;16.60;99.80
16040;DHT22;8124;48.634;8.120;2023-03-21T18:04:05;16.60;99.60
16040;DHT22;8124;48.634;8.120;2023-03-21T18:09:08;16.60;99.60
16040;DHT22;8124;48.634;8.120;2023-03-21T18:14:13;16.70;99.90
16040;DHT22;8124;48.634;8.120;2023-03-21T18:19:23;16.70;99.80
16040;DHT22;8124;48.634;8.120;2023-03-21T18:24:26;16.60;99.60
16040;DHT22;8124;48.634;8.120;2023-03-21T18:29:30;16.50;99.30
16040;DHT22;8124;48.634;8.120;2023-03-21T18:34:55;16.40;99.20
16040;DHT22;8124;48.634;8.120;2023-03-21T18:40:00;16.50;99.30
16040;DHT22;8124;48.634;8.120;2023-03-21T18:45:09;16.50;99.20
16040;DHT22;8124;48.634;8.120;2023-03-21T18:50:15;16.50;99.20
16040;DHT22;8124;48.634;8.120;2023-03-21T18:55:18;16.40;99.30
16040;DHT22;8124;48.634;8.120;2023-03-21T19:00:22;16.40;99.40
16040;DHT22;8124;48.634;8.120;2023-03-21T19:05:28;16.50;99.70
16040;DHT22;8124;48.634;8.120;2023-03-21T19:10:33;16.50;99.60
16040;DHT22;8124;48.634;8.120;2023-03-21T19:15:36;16.50;99.50
16040;DHT22;8124;48.634;8.120;2023-03-21T19:20:51;16.50;99.40
16040;DHT22;8124;48.634;8.120;2023-03-21T19:25:54;16.40;99.20
16040;DHT22;8124;48.634;8.120;2023-03-21T19:31:03;16.40;99.40
16040;DHT22;8124;48.634;8.120;2023-03-21T19:36:10;16.50;99.90
16040;DHT22;8124;48.634;8.120;2023-03-21T19:41:23;16.20;99.80
16040;DHT22;8124;48.634;8.120;2023-03-21T19:46:26;16.00;99.70
16040;DHT22;8124;48.634;8.120;2023-03-21T19:51:34;15.90;99.90
16040;DHT22;8124;48.634;8.120;2023-03-21T19:56:41;15.90;99.90
16040;DHT22;8124;48.634;8.120;2023-03-21T20:01:48;16.00;99.90
16040;DHT22;8124;48.634;8.120;2023-03-21T20:07:00;16.10;99.90
16040;DHT22;8124;48.634;8.120;2023-03-21T20:12:04;15.90;99.90
16040;DHT22;8124;48.634;8.120;2023-03-21T20:17:08;15.80;99.90
16040;DHT22;8124;48.634;8.120;2023-03-21T20:22:13;15.60;99.90
16040;DHT22;8124;48.634;8.120;2023-03-21T20:27:34;15.60;99.90
16040;DHT22;8124;48.634;8.120;2023-03-21T20:32:41;15.30;99.90
16040;DHT22;8124;48.634;8.120;2023-03-21T20:37:45;15.30;99.90
16040;DHT22;8124;48.634;8.120;2023-03-21T20:42:50;15.30;99.90
16040;DHT22;8124;48.634;8.120;2023-03-21T20:47:56;15.80;99.90
16040;DHT22;8124;48.634;8.120;2023-03-21T20:53:01;15.70;99.90
16040;DHT22;8124;48.634;8.120;2023-03-21T20:58:08;15.50;99.90
16040;DHT22;8124;48.634;8.120;2023-03-21T21:03:34;15.30;99.90
16040;DHT22;8124;48.634;8.120;2023-03-21T21:08:41;15.10;99.90
16040;DHT22;8124;48.634;8.120;2023-03-21T21:13:45;15.00;99.90
16040;DHT22;8124;48.634;8.120;2023-03-21T21:18:48;15.00;99.90
16040;DHT22;8124;48.634;8.120;2023-03-21T21:23:53;15.00;99.90
16040;DHT22;8124;48.634;8.120;2023-03-21T21:28:56;14.90;99.90
16040;DHT22;8124;48.634;8.120;2023-03-21T21:34:01;15.00;99.90
16040;DHT22;8124;48.634;8.120;2023-03-21T21:39:07;14.90;99.90
16040;DHT22;8124;48.634;8.120;2023-03-21T21:44:10;14.80;99.90
16040;DHT22;8124;48.634;8.120;2023-03-21T21:49:13;14.80;99.90
16040;DHT22;8124;48.634;8.120;2023-03-21T21:54:18;14.80;99.90
16040;DHT22;8124;48.634;8.120;2023-03-21T21:59:21;14.90;99.90
16040;DHT22;8124;48.634;8.120;2023-03-21T22:04:25;14.70;99.90
16040;DHT22;8124;48.634;8.120;2023-03-21T22:09:30;14.70;99.90
16040;DHT22;8124;48.634;8.120;2023-03-21T22:14:34;14.60;99.90
16040;DHT22;8124;48.634;8.120;2023-03-21T22:19:37;14.30;99.90
16040;DHT22;8124;48.634;8.120;2023-03-21T22:24:42;14.30;99.90
16040;DHT22;8124;48.634;8.120;2023-03-21T22:29:45;14.20;99.90
16040;DHT22;8124;48.634;8.120;2023-03-21T22:34:48;14.20;99.90
16040;DHT22;8124;48.634;8.120;2023-03-21T22:39:52;14.10;99.90
16040;DHT22;8124;48.634;8.120;2023-03-21T22:44:55;14.10;99.90
16040;DHT22;8124;48.634;8.120;2023-03-21T22:49:58;14.00;99.90
16040;DHT22;8124;48.634;8.120;2023-03-21T22:55:03;13.90;99.90
16040;DHT22;8124;48.634;8.120;2023-03-21T23:00:08;13.70;99.90
16040;DHT22;8124;48.634;8.120;2023-03-21T23:05:14;13.70;99.90
16040;DHT22;8124;48.634;8.120;2023-03-21T23:10:19;13.90;99.90
16040;DHT22;8124;48.634;8.120;2023-03-21T23:15:22;13.80;99.90
16040;DHT22;8124;48.634;8.120;2023-03-21T23:20:25;13.80;99.90
16040;DHT22;8124;48.634;8.120;2023-03-21T23:25:29;13.80;99.90
16040;DHT22;8124;48.634;8.120;2023-03-21T23:30:36;13.70;99.90
16040;DHT22;8124;48.634;8.120;2023-03-21T23:35:39;13.70;99.90
16040;DHT22;8124;48.634;8.120;2023-03-21T23:40:43;13.70;99.90
16040;DHT22;8124;48.634;8.120;2023-03-21T23:45:46;13.70;99.90
16040;DHT22;8124;48.634;8.120;2023-03-21T23:50:49;13.60;99.90
16040;DHT22;8124;48.634;8.120;2023-03-21T23:55:53;13.50;99.90
